Weather at Kaben Airport

Public forecast

Using degrees Celsius for public forecast. Weather courtesy of forecast.io.

Closest aviation weather report (METAR) to Kaben Airport

Report is more than 6 hours old.

Closest report is Marshall Islands International Airport, 113.1 nm (209.5 km) SSE. Retrieved 2022/01/28 10:56 UTC (1 day ago):

PKMJ 281056Z 06015KT 15SM FEW015 SCT050 BKN120 OVC300 28/25 A2983 RMK LAST

Closest aviation forecast (TAF) to Kaben Airport

Closest forecast is Marshall Islands International Airport, 113.1 nm (209.5 km) SSE. Retrieved 2022/01/29 06:27 UTC (5 hours ago):

TAF TAF PKMJ 290520Z 2906/3006 07020KT P6SM VCSH SCT017 SCT050 BKN120